sensor_id;sensor_type;location;lat;lon;timestamp;temperature;humidity
48454;DHT22;34261;55.678;12.464;2023-07-02T00:02:44;17.70;99.90
48454;DHT22;34261;55.678;12.464;2023-07-02T00:05:32;17.60;99.90
48454;DHT22;34261;55.678;12.464;2023-07-02T00:08:02;17.50;99.90
48454;DHT22;34261;55.678;12.464;2023-07-02T00:10:31;17.50;99.90
48454;DHT22;34261;55.678;12.464;2023-07-02T00:12:56;17.40;99.90
48454;DHT22;34261;55.678;12.464;2023-07-02T00:15:23;17.40;99.90
48454;DHT22;34261;55.678;12.464;2023-07-02T00:17:52;17.40;99.90
48454;DHT22;34261;55.678;12.464;2023-07-02T00:23:49;17.30;99.90
48454;DHT22;34261;55.678;12.464;2023-07-02T00:26:15;17.20;99.90
48454;DHT22;34261;55.678;12.464;2023-07-02T00:28:48;17.10;99.90
48454;DHT22;34261;55.678;12.464;2023-07-02T00:31:14;17.10;99.90
48454;DHT22;34261;55.678;12.464;2023-07-02T00:33:39;17.10;99.90
48454;DHT22;34261;55.678;12.464;2023-07-02T00:36:05;17.10;99.90
48454;DHT22;34261;55.678;12.464;2023-07-02T00:38:31;17.10;99.90
48454;DHT22;34261;55.678;12.464;2023-07-02T00:40:59;17.10;99.90
48454;DHT22;34261;55.678;12.464;2023-07-02T00:43:29;17.10;99.90
48454;DHT22;34261;55.678;12.464;2023-07-02T00:46:00;16.90;99.90
48454;DHT22;34261;55.678;12.464;2023-07-02T00:48:27;16.90;99.90
48454;DHT22;34261;55.678;12.464;2023-07-02T00:50:56;16.80;99.90
48454;DHT22;34261;55.678;12.464;2023-07-02T00:53:23;16.90;99.90
48454;DHT22;34261;55.678;12.464;2023-07-02T00:55:51;16.90;99.90
48454;DHT22;34261;55.678;12.464;2023-07-02T00:58:25;16.90;99.90
48454;DHT22;34261;55.678;12.464;2023-07-02T01:00:53;16.80;99.90
48454;DHT22;34261;55.678;12.464;2023-07-02T01:03:23;16.70;99.90
48454;DHT22;34261;55.678;12.464;2023-07-02T01:05:50;16.70;99.90
48454;DHT22;34261;55.678;12.464;2023-07-02T01:08:20;16.70;99.90
48454;DHT22;34261;55.678;12.464;2023-07-02T01:10:48;16.70;99.90
48454;DHT22;34261;55.678;12.464;2023-07-02T01:13:19;16.60;99.90
48454;DHT22;34261;55.678;12.464;2023-07-02T01:15:52;16.60;99.90
48454;DHT22;34261;55.678;12.464;2023-07-02T01:18:23;16.60;99.90
48454;DHT22;34261;55.678;12.464;2023-07-02T01:20:52;16.70;99.90
48454;DHT22;34261;55.678;12.464;2023-07-02T01:23:24;16.70;99.90
48454;DHT22;34261;55.678;12.464;2023-07-02T01:25:51;16.60;99.90
48454;DHT22;34261;55.678;12.464;2023-07-02T01:28:18;16.60;99.90
48454;DHT22;34261;55.678;12.464;2023-07-02T01:30:47;16.60;99.90
48454;DHT22;34261;55.678;12.464;2023-07-02T01:33:15;16.60;99.90
48454;DHT22;34261;55.678;12.464;2023-07-02T01:35:46;16.60;99.90
48454;DHT22;34261;55.678;12.464;2023-07-02T01:38:12;16.50;99.90
48454;DHT22;34261;55.678;12.464;2023-07-02T01:40:39;16.50;99.90
48454;DHT22;34261;55.678;12.464;2023-07-02T01:43:06;16.60;99.90
48454;DHT22;34261;55.678;12.464;2023-07-02T01:45:34;16.60;99.90
48454;DHT22;34261;55.678;12.464;2023-07-02T01:48:06;16.60;99.90
48454;DHT22;34261;55.678;12.464;2023-07-02T01:50:34;16.50;99.90
48454;DHT22;34261;55.678;12.464;2023-07-02T01:53:00;16.60;99.90
48454;DHT22;34261;55.678;12.464;2023-07-02T01:55:40;16.70;99.90
48454;DHT22;34261;55.678;12.464;2023-07-02T01:58:09;16.60;99.90
48454;DHT22;34261;55.678;12.464;2023-07-02T02:00:35;16.60;99.90
48454;DHT22;34261;55.678;12.464;2023-07-02T02:03:01;16.50;99.90
48454;DHT22;34261;55.678;12.464;2023-07-02T02:05:30;16.50;99.90
48454;DHT22;34261;55.678;12.464;2023-07-02T02:07:58;16.40;99.90
48454;DHT22;34261;55.678;12.464;2023-07-02T02:10:29;16.40;99.90
48454;DHT22;34261;55.678;12.464;2023-07-02T02:12:59;16.40;99.90
48454;DHT22;34261;55.678;12.464;2023-07-02T02:15:29;16.50;99.90
48454;DHT22;34261;55.678;12.464;2023-07-02T02:17:54;16.50;99.90
48454;DHT22;34261;55.678;12.464;2023-07-02T02:20:20;16.50;99.90
48454;DHT22;34261;55.678;12.464;2023-07-02T02:22:48;16.50;99.90
48454;DHT22;34261;55.678;12.464;2023-07-02T02:25:16;16.50;99.90
48454;DHT22;34261;55.678;12.464;2023-07-02T02:27:42;16.50;99.90
48454;DHT22;34261;55.678;12.464;2023-07-02T02:30:11;16.50;99.90
48454;DHT22;34261;55.678;12.464;2023-07-02T02:32:40;16.50;99.90
48454;DHT22;34261;55.678;12.464;2023-07-02T02:35:08;16.50;99.90
48454;DHT22;34261;55.678;12.464;2023-07-02T02:37:37;16.40;99.90
48454;DHT22;34261;55.678;12.464;2023-07-02T02:40:07;16.50;99.90
48454;DHT22;34261;55.678;12.464;2023-07-02T02:42:39;16.40;99.90
48454;DHT22;34261;55.678;12.464;2023-07-02T02:45:09;16.50;99.90
48454;DHT22;34261;55.678;12.464;2023-07-02T02:47:38;16.40;99.90
48454;DHT22;34261;55.678;12.464;2023-07-02T02:50:07;16.40;99.90
48454;DHT22;34261;55.678;12.464;2023-07-02T02:52:35;16.30;99.90
48454;DHT22;34261;55.678;12.464;2023-07-02T02:55:08;16.30;99.90
48454;DHT22;34261;55.678;12.464;2023-07-02T02:57:34;16.30;99.90
48454;DHT22;34261;55.678;12.464;2023-07-02T03:00:09;16.30;99.90
48454;DHT22;34261;55.678;12.464;2023-07-02T03:02:37;16.30;99.90
48454;DHT22;34261;55.678;12.464;2023-07-02T03:05:09;16.40;99.90
48454;DHT22;34261;55.678;12.464;2023-07-02T03:07:38;16.30;99.90
48454;DHT22;34261;55.678;12.464;2023-07-02T03:10:07;16.30;99.90
48454;DHT22;34261;55.678;12.464;2023-07-02T03:12:35;16.30;99.90
48454;DHT22;34261;55.678;12.464;2023-07-02T03:15:01;16.40;99.90
48454;DHT22;34261;55.678;12.464;2023-07-02T03:17:29;16.40;99.90
48454;DHT22;34261;55.678;12.464;2023-07-02T03:19:56;16.40;99.90
48454;DHT22;34261;55.678;12.464;2023-07-02T03:22:22;16.40;99.90
48454;DHT22;34261;55.678;12.464;2023-07-02T03:24:48;16.50;99.90
48454;DHT22;34261;55.678;12.464;2023-07-02T03:27:14;16.60;99.90
48454;DHT22;34261;55.678;12.464;2023-07-02T03:29:40;16.60;99.90
48454;DHT22;34261;55.678;12.464;2023-07-02T03:32:09;16.60;99.90
48454;DHT22;34261;55.678;12.464;2023-07-02T03:34:34;16.70;99.90
48454;DHT22;34261;55.678;12.464;2023-07-02T03:37:07;16.70;99.90
48454;DHT22;34261;55.678;12.464;2023-07-02T03:39:36;16.80;99.90
48454;DHT22;34261;55.678;12.464;2023-07-02T03:42:07;16.80;99.90
48454;DHT22;34261;55.678;12.464;2023-07-02T03:44:35;16.80;99.90
48454;DHT22;34261;55.678;12.464;2023-07-02T03:47:01;16.80;99.90
48454;DHT22;34261;55.678;12.464;2023-07-02T03:49:26;16.80;99.90
48454;DHT22;34261;55.678;12.464;2023-07-02T03:51:55;16.80;99.90
48454;DHT22;34261;55.678;12.464;2023-07-02T03:54:23;16.80;99.90
48454;DHT22;34261;55.678;12.464;2023-07-02T03:56:49;16.80;99.90
48454;DHT22;34261;55.678;12.464;2023-07-02T03:59:19;16.80;99.90
48454;DHT22;34261;55.678;12.464;2023-07-02T04:01:47;16.80;99.90
48454;DHT22;34261;55.678;12.464;2023-07-02T04:04:16;16.80;99.90
48454;DHT22;34261;55.678;12.464;2023-07-02T04:06:52;16.80;99.90
48454;DHT22;34261;55.678;12.464;2023-07-02T04:09:23;16.70;99.90
48454;DHT22;34261;55.678;12.464;2023-07-02T04:11:49;16.80;99.90
48454;DHT22;34261;55.678;12.464;2023-07-02T04:14:19;16.80;99.90
48454;DHT22;34261;55.678;12.464;2023-07-02T04:16:48;16.80;99.90
48454;DHT22;34261;55.678;12.464;2023-07-02T04:19:16;16.80;99.90
48454;DHT22;34261;55.678;12.464;2023-07-02T04:21:45;16.90;99.90
48454;DHT22;34261;55.678;12.464;2023-07-02T04:24:13;16.90;99.90
48454;DHT22;34261;55.678;12.464;2023-07-02T04:26:44;16.90;99.90
48454;DHT22;34261;55.678;12.464;2023-07-02T04:29:13;16.90;99.90
48454;DHT22;34261;55.678;12.464;2023-07-02T04:31:41;16.80;99.90
48454;DHT22;34261;55.678;12.464;2023-07-02T04:34:07;16.80;99.90
48454;DHT22;34261;55.678;12.464;2023-07-02T04:36:32;16.80;99.90
48454;DHT22;34261;55.678;12.464;2023-07-02T04:39:04;16.80;99.90
48454;DHT22;34261;55.678;12.464;2023-07-02T04:41:32;16.90;99.90
48454;DHT22;34261;55.678;12.464;2023-07-02T04:43:58;16.80;99.90
48454;DHT22;34261;55.678;12.464;2023-07-02T04:46:26;16.90;99.90
48454;DHT22;34261;55.678;12.464;2023-07-02T04:48:53;17.00;99.90
48454;DHT22;34261;55.678;12.464;2023-07-02T04:51:20;17.00;99.90
48454;DHT22;34261;55.678;12.464;2023-07-02T04:53:46;17.10;99.90
48454;DHT22;34261;55.678;12.464;2023-07-02T04:56:11;17.10;99.90
48454;DHT22;34261;55.678;12.464;2023-07-02T04:58:37;17.10;99.90
48454;DHT22;34261;55.678;12.464;2023-07-02T05:01:03;17.20;99.90
48454;DHT22;34261;55.678;12.464;2023-07-02T05:03:31;17.30;99.90
48454;DHT22;34261;55.678;12.464;2023-07-02T05:05:57;17.30;99.90
48454;DHT22;34261;55.678;12.464;2023-07-02T05:08:23;17.30;99.90
48454;DHT22;34261;55.678;12.464;2023-07-02T05:10:51;17.30;99.90
48454;DHT22;34261;55.678;12.464;2023-07-02T05:13:22;17.30;99.90
48454;DHT22;34261;55.678;12.464;2023-07-02T05:15:50;17.30;99.90
48454;DHT22;34261;55.678;12.464;2023-07-02T05:18:15;17.40;99.90
48454;DHT22;34261;55.678;12.464;2023-07-02T05:20:41;17.50;99.90
48454;DHT22;34261;55.678;12.464;2023-07-02T05:23:06;17.50;99.90
48454;DHT22;34261;55.678;12.464;2023-07-02T05:25:35;17.30;99.90
48454;DHT22;34261;55.678;12.464;2023-07-02T05:28:04;17.30;99.90
48454;DHT22;34261;55.678;12.464;2023-07-02T05:30:35;17.30;99.90
48454;DHT22;34261;55.678;12.464;2023-07-02T05:33:07;17.30;99.90
48454;DHT22;34261;55.678;12.464;2023-07-02T05:35:34;17.40;99.90
48454;DHT22;34261;55.678;12.464;2023-07-02T05:38:05;17.40;99.90
48454;DHT22;34261;55.678;12.464;2023-07-02T05:40:32;17.40;99.90
48454;DHT22;34261;55.678;12.464;2023-07-02T05:42:58;17.40;99.90
48454;DHT22;34261;55.678;12.464;2023-07-02T05:45:29;17.50;99.90
48454;DHT22;34261;55.678;12.464;2023-07-02T05:47:57;17.60;99.90
48454;DHT22;34261;55.678;12.464;2023-07-02T05:50:24;17.70;99.90
48454;DHT22;34261;55.678;12.464;2023-07-02T05:52:51;17.80;99.90
48454;DHT22;34261;55.678;12.464;2023-07-02T05:55:17;17.80;99.90
48454;DHT22;34261;55.678;12.464;2023-07-02T05:57:42;17.80;99.90
48454;DHT22;34261;55.678;12.464;2023-07-02T06:00:10;17.80;99.90
48454;DHT22;34261;55.678;12.464;2023-07-02T06:02:37;17.80;99.90
48454;DHT22;34261;55.678;12.464;2023-07-02T06:05:08;17.80;99.90
48454;DHT22;34261;55.678;12.464;2023-07-02T06:07:36;17.80;99.90
48454;DHT22;34261;55.678;12.464;2023-07-02T06:10:02;17.90;99.90
48454;DHT22;34261;55.678;12.464;2023-07-02T06:12:28;18.00;99.90
48454;DHT22;34261;55.678;12.464;2023-07-02T06:14:53;18.00;99.90
48454;DHT22;34261;55.678;12.464;2023-07-02T06:17:19;18.10;99.90
48454;DHT22;34261;55.678;12.464;2023-07-02T06:19:46;18.20;99.90
48454;DHT22;34261;55.678;12.464;2023-07-02T06:22:13;18.10;99.90
48454;DHT22;34261;55.678;12.464;2023-07-02T06:24:40;17.90;99.90
48454;DHT22;34261;55.678;12.464;2023-07-02T06:27:06;17.90;99.90
48454;DHT22;34261;55.678;12.464;2023-07-02T06:29:31;18.00;99.90
48454;DHT22;34261;55.678;12.464;2023-07-02T06:31:57;18.30;99.90
48454;DHT22;34261;55.678;12.464;2023-07-02T06:34:22;18.60;99.90
48454;DHT22;34261;55.678;12.464;2023-07-02T06:36:48;18.60;99.90
48454;DHT22;34261;55.678;12.464;2023-07-02T06:39:15;18.50;99.90
48454;DHT22;34261;55.678;12.464;2023-07-02T06:41:42;18.40;99.90
48454;DHT22;34261;55.678;12.464;2023-07-02T06:44:07;18.60;99.90
48454;DHT22;34261;55.678;12.464;2023-07-02T06:46:33;18.70;99.90
48454;DHT22;34261;55.678;12.464;2023-07-02T06:48:58;18.70;99.90
48454;DHT22;34261;55.678;12.464;2023-07-02T06:51:24;18.50;99.90
48454;DHT22;34261;55.678;12.464;2023-07-02T06:53:51;18.40;99.90
48454;DHT22;34261;55.678;12.464;2023-07-02T06:56:17;18.40;99.90
48454;DHT22;34261;55.678;12.464;2023-07-02T06:58:42;18.50;99.90
48454;DHT22;34261;55.678;12.464;2023-07-02T07:01:09;18.50;99.90
48454;DHT22;34261;55.678;12.464;2023-07-02T07:03:37;18.60;99.90
48454;DHT22;34261;55.678;12.464;2023-07-02T07:06:03;18.80;99.90
48454;DHT22;34261;55.678;12.464;2023-07-02T07:08:28;18.90;99.90
48454;DHT22;34261;55.678;12.464;2023-07-02T07:10:55;19.00;99.90
48454;DHT22;34261;55.678;12.464;2023-07-02T07:13:21;19.00;99.90
48454;DHT22;34261;55.678;12.464;2023-07-02T07:15:46;18.80;99.90
48454;DHT22;34261;55.678;12.464;2023-07-02T07:18:12;18.70;99.90
48454;DHT22;34261;55.678;12.464;2023-07-02T07:20:39;18.90;99.90
48454;DHT22;34261;55.678;12.464;2023-07-02T07:23:07;19.00;99.90
48454;DHT22;34261;55.678;12.464;2023-07-02T07:25:38;19.10;99.90
48454;DHT22;34261;55.678;12.464;2023-07-02T07:28:07;19.10;99.90
48454;DHT22;34261;55.678;12.464;2023-07-02T07:33:20;19.00;99.90
48454;DHT22;34261;55.678;12.464;2023-07-02T07:35:45;19.30;99.90
48454;DHT22;34261;55.678;12.464;2023-07-02T07:38:13;19.60;99.90
48454;DHT22;34261;55.678;12.464;2023-07-02T07:40:40;19.70;99.90
48454;DHT22;34261;55.678;12.464;2023-07-02T07:43:05;20.00;99.90
48454;DHT22;34261;55.678;12.464;2023-07-02T07:45:31;20.10;99.90
48454;DHT22;34261;55.678;12.464;2023-07-02T07:47:56;20.10;99.90
48454;DHT22;34261;55.678;12.464;2023-07-02T07:50:22;20.30;99.60
48454;DHT22;34261;55.678;12.464;2023-07-02T07:52:49;20.20;99.80
48454;DHT22;34261;55.678;12.464;2023-07-02T07:55:14;20.10;99.90
48454;DHT22;34261;55.678;12.464;2023-07-02T07:57:40;19.90;99.90
48454;DHT22;34261;55.678;12.464;2023-07-02T08:00:07;20.00;99.90
48454;DHT22;34261;55.678;12.464;2023-07-02T08:02:35;20.10;99.90
48454;DHT22;34261;55.678;12.464;2023-07-02T08:05:07;20.30;99.90
48454;DHT22;34261;55.678;12.464;2023-07-02T08:07:32;20.50;99.90
48454;DHT22;34261;55.678;12.464;2023-07-02T08:10:02;20.40;99.90
48454;DHT22;34261;55.678;12.464;2023-07-02T08:12:28;20.60;99.90
48454;DHT22;34261;55.678;12.464;2023-07-02T08:14:55;20.50;99.50
48454;DHT22;34261;55.678;12.464;2023-07-02T08:17:21;20.50;99.20
48454;DHT22;34261;55.678;12.464;2023-07-02T08:19:46;20.70;99.20
48454;DHT22;34261;55.678;12.464;2023-07-02T08:22:12;21.10;99.40
48454;DHT22;34261;55.678;12.464;2023-07-02T08:24:38;21.30;98.40
48454;DHT22;34261;55.678;12.464;2023-07-02T08:27:04;21.30;98.70
48454;DHT22;34261;55.678;12.464;2023-07-02T08:29:30;21.20;97.70
48454;DHT22;34261;55.678;12.464;2023-07-02T08:31:56;21.00;96.90
48454;DHT22;34261;55.678;12.464;2023-07-02T08:34:22;21.20;96.70
48454;DHT22;34261;55.678;12.464;2023-07-02T08:36:47;21.20;96.50
48454;DHT22;34261;55.678;12.464;2023-07-02T08:39:14;21.00;97.10
48454;DHT22;34261;55.678;12.464;2023-07-02T08:41:47;21.10;97.00
48454;DHT22;34261;55.678;12.464;2023-07-02T08:44:18;21.30;97.50
48454;DHT22;34261;55.678;12.464;2023-07-02T08:46:44;21.30;96.80
48454;DHT22;34261;55.678;12.464;2023-07-02T08:49:10;21.10;96.40
48454;DHT22;34261;55.678;12.464;2023-07-02T08:51:36;20.70;97.40
48454;DHT22;34261;55.678;12.464;2023-07-02T08:54:02;20.30;99.80
48454;DHT22;34261;55.678;12.464;2023-07-02T08:56:28;20.00;99.90
48454;DHT22;34261;55.678;12.464;2023-07-02T08:58:54;20.30;99.90
48454;DHT22;34261;55.678;12.464;2023-07-02T09:01:20;20.70;99.90
48454;DHT22;34261;55.678;12.464;2023-07-02T09:03:45;21.10;99.30
48454;DHT22;34261;55.678;12.464;2023-07-02T09:06:12;21.40;97.70
48454;DHT22;34261;55.678;12.464;2023-07-02T09:08:39;21.30;98.10
48454;DHT22;34261;55.678;12.464;2023-07-02T09:11:15;21.00;97.90
48454;DHT22;34261;55.678;12.464;2023-07-02T09:13:50;20.90;97.90
48454;DHT22;34261;55.678;12.464;2023-07-02T09:16:29;20.70;97.90
48454;DHT22;34261;55.678;12.464;2023-07-02T09:19:06;21.00;97.60
48454;DHT22;34261;55.678;12.464;2023-07-02T09:21:42;21.10;96.20
48454;DHT22;34261;55.678;12.464;2023-07-02T09:24:24;21.80;97.30
48454;DHT22;34261;55.678;12.464;2023-07-02T09:26:52;21.80;95.10
48454;DHT22;34261;55.678;12.464;2023-07-02T09:29:23;22.10;94.80
48454;DHT22;34261;55.678;12.464;2023-07-02T09:31:49;21.80;93.20
48454;DHT22;34261;55.678;12.464;2023-07-02T09:34:15;21.50;94.00
48454;DHT22;34261;55.678;12.464;2023-07-02T09:36:41;21.10;93.80
48454;DHT22;34261;55.678;12.464;2023-07-02T09:39:24;21.10;94.30
48454;DHT22;34261;55.678;12.464;2023-07-02T09:41:50;21.00;93.90
48454;DHT22;34261;55.678;12.464;2023-07-02T09:44:17;21.30;94.10
48454;DHT22;34261;55.678;12.464;2023-07-02T09:46:49;21.10;93.20
48454;DHT22;34261;55.678;12.464;2023-07-02T09:49:20;20.60;94.10
48454;DHT22;34261;55.678;12.464;2023-07-02T09:51:47;19.90;95.10
48454;DHT22;34261;55.678;12.464;2023-07-02T09:54:15;19.50;96.00
48454;DHT22;34261;55.678;12.464;2023-07-02T09:56:41;19.50;96.90
48454;DHT22;34261;55.678;12.464;2023-07-02T09:59:09;19.30;97.50
48454;DHT22;34261;55.678;12.464;2023-07-02T10:01:35;19.30;98.80
48454;DHT22;34261;55.678;12.464;2023-07-02T10:04:13;19.00;98.80
48454;DHT22;34261;55.678;12.464;2023-07-02T10:06:51;18.70;99.40
48454;DHT22;34261;55.678;12.464;2023-07-02T10:09:37;18.60;99.90
48454;DHT22;34261;55.678;12.464;2023-07-02T10:12:18;18.60;99.90
48454;DHT22;34261;55.678;12.464;2023-07-02T10:14:45;18.60;99.90
48454;DHT22;34261;55.678;12.464;2023-07-02T10:17:11;18.60;99.90
48454;DHT22;34261;55.678;12.464;2023-07-02T10:19:54;18.20;99.90
48454;DHT22;34261;55.678;12.464;2023-07-02T10:22:22;17.80;99.90
48454;DHT22;34261;55.678;12.464;2023-07-02T10:24:55;17.60;99.90
48454;DHT22;34261;55.678;12.464;2023-07-02T10:27:33;17.70;99.90
48454;DHT22;34261;55.678;12.464;2023-07-02T10:29:59;17.90;99.90
48454;DHT22;34261;55.678;12.464;2023-07-02T10:32:29;18.20;99.90
48454;DHT22;34261;55.678;12.464;2023-07-02T10:35:21;18.70;99.90
48454;DHT22;34261;55.678;12.464;2023-07-02T10:37:47;19.20;99.90
48454;DHT22;34261;55.678;12.464;2023-07-02T10:40:14;19.80;99.90
48454;DHT22;34261;55.678;12.464;2023-07-02T10:42:50;19.80;99.90
48454;DHT22;34261;55.678;12.464;2023-07-02T10:45:17;20.00;99.20
48454;DHT22;34261;55.678;12.464;2023-07-02T10:47:42;20.40;99.30
48454;DHT22;34261;55.678;12.464;2023-07-02T10:52:41;21.40;98.00
48454;DHT22;34261;55.678;12.464;2023-07-02T10:55:07;21.40;96.90
48454;DHT22;34261;55.678;12.464;2023-07-02T10:57:35;21.60;96.60
48454;DHT22;34261;55.678;12.464;2023-07-02T11:00:07;21.60;96.80
48454;DHT22;34261;55.678;12.464;2023-07-02T11:02:37;21.50;97.40
48454;DHT22;34261;55.678;12.464;2023-07-02T11:05:07;21.50;96.90
48454;DHT22;34261;55.678;12.464;2023-07-02T11:07:38;21.90;97.80
48454;DHT22;34261;55.678;12.464;2023-07-02T11:10:03;22.10;96.30
48454;DHT22;34261;55.678;12.464;2023-07-02T11:12:30;22.20;96.40
48454;DHT22;34261;55.678;12.464;2023-07-02T11:15:10;22.60;96.30
48454;DHT22;34261;55.678;12.464;2023-07-02T11:17:36;22.20;95.10
48454;DHT22;34261;55.678;12.464;2023-07-02T11:20:02;22.10;95.90
48454;DHT22;34261;55.678;12.464;2023-07-02T11:22:34;21.60;95.50
48454;DHT22;34261;55.678;12.464;2023-07-02T11:27:39;21.20;95.30
48454;DHT22;34261;55.678;12.464;2023-07-02T11:30:05;20.90;95.70
48454;DHT22;34261;55.678;12.464;2023-07-02T11:32:31;20.60;95.40
48454;DHT22;34261;55.678;12.464;2023-07-02T11:34:57;20.60;95.90
48454;DHT22;34261;55.678;12.464;2023-07-02T11:37:22;20.40;95.80
48454;DHT22;34261;55.678;12.464;2023-07-02T11:39:48;20.10;96.20
48454;DHT22;34261;55.678;12.464;2023-07-02T11:42:13;19.90;96.70
48454;DHT22;34261;55.678;12.464;2023-07-02T11:44:40;19.60;96.70
48454;DHT22;34261;55.678;12.464;2023-07-02T11:47:06;19.10;97.70
48454;DHT22;34261;55.678;12.464;2023-07-02T11:49:32;18.90;98.80
48454;DHT22;34261;55.678;12.464;2023-07-02T11:51:57;18.70;97.40
48454;DHT22;34261;55.678;12.464;2023-07-02T11:54:23;18.50;97.80
48454;DHT22;34261;55.678;12.464;2023-07-02T11:56:49;18.40;98.20
48454;DHT22;34261;55.678;12.464;2023-07-02T11:59:20;18.60;99.20
48454;DHT22;34261;55.678;12.464;2023-07-02T12:01:45;19.00;99.10
48454;DHT22;34261;55.678;12.464;2023-07-02T12:04:11;19.50;98.50
48454;DHT22;34261;55.678;12.464;2023-07-02T12:06:37;20.10;98.80
48454;DHT22;34261;55.678;12.464;2023-07-02T12:09:02;20.90;97.20
48454;DHT22;34261;55.678;12.464;2023-07-02T12:11:32;21.50;95.90
48454;DHT22;34261;55.678;12.464;2023-07-02T12:13:59;21.60;95.70
48454;DHT22;34261;55.678;12.464;2023-07-02T12:16:24;21.70;95.20
48454;DHT22;34261;55.678;12.464;2023-07-02T12:18:51;22.10;96.10
48454;DHT22;34261;55.678;12.464;2023-07-02T12:21:17;22.90;95.50
48454;DHT22;34261;55.678;12.464;2023-07-02T12:23:43;22.80;94.30
48454;DHT22;34261;55.678;12.464;2023-07-02T12:26:09;22.00;95.00
48454;DHT22;34261;55.678;12.464;2023-07-02T12:28:34;21.40;96.20
48454;DHT22;34261;55.678;12.464;2023-07-02T12:31:00;20.80;97.90
48454;DHT22;34261;55.678;12.464;2023-07-02T12:33:27;20.40;99.00
48454;DHT22;34261;55.678;12.464;2023-07-02T12:35:53;20.10;99.60
48454;DHT22;34261;55.678;12.464;2023-07-02T12:38:18;19.90;99.90
48454;DHT22;34261;55.678;12.464;2023-07-02T12:40:44;19.80;99.90
48454;DHT22;34261;55.678;12.464;2023-07-02T12:43:10;19.70;99.90
48454;DHT22;34261;55.678;12.464;2023-07-02T12:45:35;19.70;99.90
48454;DHT22;34261;55.678;12.464;2023-07-02T12:48:01;20.00;99.90
48454;DHT22;34261;55.678;12.464;2023-07-02T12:50:28;20.20;99.90
48454;DHT22;34261;55.678;12.464;2023-07-02T12:52:54;20.00;99.90
48454;DHT22;34261;55.678;12.464;2023-07-02T12:55:20;20.20;99.30
48454;DHT22;34261;55.678;12.464;2023-07-02T12:57:45;20.60;98.20
48454;DHT22;34261;55.678;12.464;2023-07-02T13:00:11;21.50;98.20
48454;DHT22;34261;55.678;12.464;2023-07-02T13:02:37;21.30;96.30
48454;DHT22;34261;55.678;12.464;2023-07-02T13:05:02;21.10;96.40
48454;DHT22;34261;55.678;12.464;2023-07-02T13:07:28;21.00;97.30
48454;DHT22;34261;55.678;12.464;2023-07-02T13:09:55;21.50;95.40
48454;DHT22;34261;55.678;12.464;2023-07-02T13:12:21;21.70;94.20
48454;DHT22;34261;55.678;12.464;2023-07-02T13:14:46;21.70;93.00
48454;DHT22;34261;55.678;12.464;2023-07-02T13:17:12;22.00;91.70
48454;DHT22;34261;55.678;12.464;2023-07-02T13:19:37;22.20;92.30
48454;DHT22;34261;55.678;12.464;2023-07-02T13:22:04;21.40;92.20
48454;DHT22;34261;55.678;12.464;2023-07-02T13:24:34;21.20;93.40
48454;DHT22;34261;55.678;12.464;2023-07-02T13:27:05;20.90;93.60
48454;DHT22;34261;55.678;12.464;2023-07-02T13:29:33;20.80;93.60
48454;DHT22;34261;55.678;12.464;2023-07-02T13:31:59;20.90;93.10
48454;DHT22;34261;55.678;12.464;2023-07-02T13:34:24;21.60;92.80
48454;DHT22;34261;55.678;12.464;2023-07-02T13:36:50;22.30;91.60
48454;DHT22;34261;55.678;12.464;2023-07-02T13:39:16;22.30;88.60
48454;DHT22;34261;55.678;12.464;2023-07-02T13:41:41;21.70;88.10
48454;DHT22;34261;55.678;12.464;2023-07-02T13:44:07;21.40;89.20
48454;DHT22;34261;55.678;12.464;2023-07-02T13:46:32;21.40;90.10
48454;DHT22;34261;55.678;12.464;2023-07-02T13:48:58;21.20;89.90
48454;DHT22;34261;55.678;12.464;2023-07-02T13:51:24;21.10;89.60
48454;DHT22;34261;55.678;12.464;2023-07-02T13:53:49;21.20;89.70
48454;DHT22;34261;55.678;12.464;2023-07-02T13:56:15;22.00;90.30
48454;DHT22;34261;55.678;12.464;2023-07-02T14:01:24;22.00;90.20
48454;DHT22;34261;55.678;12.464;2023-07-02T14:03:50;21.70;90.20
48454;DHT22;34261;55.678;12.464;2023-07-02T14:06:17;21.60;90.60
48454;DHT22;34261;55.678;12.464;2023-07-02T14:08:42;21.00;90.70
48454;DHT22;34261;55.678;12.464;2023-07-02T14:11:08;20.70;90.90
48454;DHT22;34261;55.678;12.464;2023-07-02T14:13:33;20.50;91.40
48454;DHT22;34261;55.678;12.464;2023-07-02T14:15:59;20.30;92.10
48454;DHT22;34261;55.678;12.464;2023-07-02T14:18:26;20.10;94.50
48454;DHT22;34261;55.678;12.464;2023-07-02T14:20:52;19.90;97.70
48454;DHT22;34261;55.678;12.464;2023-07-02T14:23:17;19.80;97.60
48454;DHT22;34261;55.678;12.464;2023-07-02T14:25:43;20.20;97.60
48454;DHT22;34261;55.678;12.464;2023-07-02T14:28:09;20.20;97.30
48454;DHT22;34261;55.678;12.464;2023-07-02T14:30:35;20.00;96.90
48454;DHT22;34261;55.678;12.464;2023-07-02T14:33:01;19.80;97.70
48454;DHT22;34261;55.678;12.464;2023-07-02T14:35:26;19.50;98.10
48454;DHT22;34261;55.678;12.464;2023-07-02T14:37:54;19.50;98.50
48454;DHT22;34261;55.678;12.464;2023-07-02T14:40:26;19.60;97.70
48454;DHT22;34261;55.678;12.464;2023-07-02T14:42:52;19.60;95.80
48454;DHT22;34261;55.678;12.464;2023-07-02T14:45:17;20.30;95.00
48454;DHT22;34261;55.678;12.464;2023-07-02T14:47:43;20.90;93.90
48454;DHT22;34261;55.678;12.464;2023-07-02T14:50:09;21.50;93.60
48454;DHT22;34261;55.678;12.464;2023-07-02T14:52:34;21.60;92.10
48454;DHT22;34261;55.678;12.464;2023-07-02T14:55:00;21.70;92.60
48454;DHT22;34261;55.678;12.464;2023-07-02T14:57:27;21.70;92.60
48454;DHT22;34261;55.678;12.464;2023-07-02T14:59:53;21.80;92.10
48454;DHT22;34261;55.678;12.464;2023-07-02T15:02:18;21.70;91.80
48454;DHT22;34261;55.678;12.464;2023-07-02T15:04:44;21.80;92.10
48454;DHT22;34261;55.678;12.464;2023-07-02T15:07:10;21.70;92.00
48454;DHT22;34261;55.678;12.464;2023-07-02T15:09:36;21.60;92.60
48454;DHT22;34261;55.678;12.464;2023-07-02T15:12:02;21.80;92.70
48454;DHT22;34261;55.678;12.464;2023-07-02T15:14:28;22.00;92.70
48454;DHT22;34261;55.678;12.464;2023-07-02T15:16:53;22.20;92.90
48454;DHT22;34261;55.678;12.464;2023-07-02T15:19:19;21.70;92.50
48454;DHT22;34261;55.678;12.464;2023-07-02T15:21:45;21.90;92.80
48454;DHT22;34261;55.678;12.464;2023-07-02T15:24:11;21.30;91.80
48454;DHT22;34261;55.678;12.464;2023-07-02T15:26:41;20.80;92.60
48454;DHT22;34261;55.678;12.464;2023-07-02T15:29:08;20.80;93.20
48454;DHT22;34261;55.678;12.464;2023-07-02T15:31:34;20.90;93.70
48454;DHT22;34261;55.678;12.464;2023-07-02T15:34:01;21.50;93.20